createdAt,value
2017-09-21T00:00:09.415Z,996.6
2017-09-21T00:01:10.156Z,996.6
2017-09-21T00:02:11.267Z,996.6
2017-09-21T00:03:12.227Z,996.6
2017-09-21T00:04:13.104Z,996.6
2017-09-21T00:05:13.957Z,996.6
2017-09-21T00:06:14.839Z,996.6
2017-09-21T00:07:15.588Z,996.6
2017-09-21T00:08:16.306Z,996.6
2017-09-21T00:09:17.062Z,996.6
2017-09-21T00:10:17.814Z,996.6
2017-09-21T00:11:18.752Z,996.6
2017-09-21T00:12:19.498Z,996.6
2017-09-21T00:13:20.998Z,996.6
2017-09-21T00:14:22.041Z,996.6
2017-09-21T00:15:22.947Z,996.6
2017-09-21T00:16:23.880Z,996.6
2017-09-21T00:17:24.729Z,996.6
2017-09-21T00:18:25.631Z,996.6
2017-09-21T00:19:26.472Z,996.6
2017-09-21T00:20:27.382Z,996.6
2017-09-21T00:21:28.234Z,996.6
2017-09-21T00:22:29.291Z,996.6
2017-09-21T00:23:30.101Z,996.6
2017-09-21T00:24:30.923Z,996.6
2017-09-21T00:25:31.821Z,996.6
2017-09-21T00:26:32.647Z,996.6
2017-09-21T00:27:33.425Z,996.6
2017-09-21T00:28:34.231Z,996.7
2017-09-21T00:29:35.009Z,996.7
2017-09-21T00:30:35.887Z,996.6
2017-09-21T00:31:36.702Z,996.7
2017-09-21T00:32:37.493Z,996.7
2017-09-21T00:33:38.562Z,996.6
2017-09-21T00:34:39.350Z,996.6
2017-09-21T00:35:40.269Z,996.6
2017-09-21T00:36:41.929Z,996.7
2017-09-21T00:37:42.664Z,996.7
2017-09-21T00:38:43.768Z,996.7
2017-09-21T00:39:44.757Z,996.7
2017-09-21T00:40:45.615Z,996.7
2017-09-21T00:41:46.350Z,996.7
2017-09-21T00:42:47.139Z,996.7
2017-09-21T00:43:47.993Z,996.7
2017-09-21T00:44:48.772Z,996.8
2017-09-21T00:45:49.747Z,996.8
2017-09-21T00:46:50.582Z,996.8
2017-09-21T00:47:51.285Z,996.7
2017-09-21T00:48:52.442Z,996.8
2017-09-21T00:49:53.169Z,996.7
2017-09-21T00:50:53.937Z,996.8
2017-09-21T00:51:54.757Z,996.7
2017-09-21T00:52:55.610Z,996.8
2017-09-21T00:53:56.404Z,996.7
2017-09-21T00:54:57.315Z,996.8
2017-09-21T00:55:58.273Z,996.7
2017-09-21T00:56:59.292Z,996.7
2017-09-21T00:58:00.187Z,996.7
2017-09-21T00:59:01.220Z,996.7
2017-09-21T01:00:01.955Z,996.7
2017-09-21T01:01:02.847Z,996.7
2017-09-21T01:02:03.675Z,996.7
2017-09-21T01:03:04.522Z,996.7
2017-09-21T01:04:05.325Z,996.7
2017-09-21T01:05:06.121Z,996.7
2017-09-21T01:06:06.998Z,996.7
2017-09-21T01:07:07.819Z,996.7
2017-09-21T01:08:09.369Z,996.7
2017-09-21T01:09:10.162Z,996.7
2017-09-21T01:10:10.875Z,996.7
2017-09-21T01:11:11.615Z,996.7
2017-09-21T01:12:12.450Z,996.7
2017-09-21T01:13:13.364Z,996.7
2017-09-21T01:14:14.279Z,996.7
2017-09-21T01:15:15.220Z,996.7
2017-09-21T01:16:16.097Z,996.7
2017-09-21T01:17:17.322Z,996.7
2017-09-21T01:18:18.228Z,996.7
2017-09-21T01:19:18.976Z,996.7
2017-09-21T01:20:19.788Z,996.7
2017-09-21T01:21:20.543Z,996.7
2017-09-21T01:22:21.546Z,996.7
2017-09-21T01:23:22.490Z,996.7
2017-09-21T01:24:23.751Z,996.7
2017-09-21T01:25:24.602Z,996.7
2017-09-21T01:26:25.346Z,996.7
2017-09-21T01:27:26.115Z,996.7
2017-09-21T01:28:26.948Z,996.7
2017-09-21T01:29:27.700Z,996.7
2017-09-21T01:30:28.871Z,996.7
2017-09-21T01:31:29.726Z,996.7
2017-09-21T01:32:30.492Z,996.6
2017-09-21T01:33:31.794Z,996.6
2017-09-21T01:34:32.573Z,996.7
2017-09-21T01:35:33.423Z,996.7
2017-09-21T01:36:34.243Z,996.7
2017-09-21T01:37:35.060Z,996.6
2017-09-21T01:38:35.884Z,996.7
2017-09-21T01:39:36.615Z,996.7
2017-09-21T01:40:37.438Z,996.7
2017-09-21T01:41:38.225Z,996.7
2017-09-21T01:42:39.218Z,996.7
2017-09-21T01:43:39.947Z,996.7
2017-09-21T01:44:40.702Z,996.7
2017-09-21T01:45:41.759Z,996.6
2017-09-21T01:46:42.522Z,996.6
2017-09-21T01:47:43.283Z,996.7
2017-09-21T01:48:44.492Z,996.6
2017-09-21T01:49:45.649Z,996.6
2017-09-21T01:50:46.398Z,996.7
2017-09-21T01:51:47.345Z,996.6
2017-09-21T01:52:48.138Z,996.6
2017-09-21T01:53:48.896Z,996.7
2017-09-21T01:54:49.638Z,996.6
2017-09-21T01:55:50.634Z,996.6
2017-09-21T01:56:51.433Z,996.6
2017-09-21T01:57:52.105Z,996.6
2017-09-21T01:58:53.101Z,996.6
2017-09-21T01:59:53.837Z,996.6
2017-09-21T02:00:54.741Z,996.6
2017-09-21T02:01:55.477Z,996.6
2017-09-21T02:02:56.358Z,996.6
2017-09-21T02:03:57.209Z,996.6
2017-09-21T02:04:57.930Z,996.6
2017-09-21T02:05:58.685Z,996.6
2017-09-21T02:06:59.491Z,996.6
2017-09-21T02:08:00.429Z,996.6
2017-09-21T02:09:01.145Z,996.6
2017-09-21T02:10:02.113Z,996.7
2017-09-21T02:11:02.918Z,996.7
2017-09-21T02:12:03.735Z,996.7
2017-09-21T02:13:04.495Z,996.7
2017-09-21T02:14:05.463Z,996.6
2017-09-21T02:15:06.224Z,996.7
2017-09-21T02:16:07.058Z,996.7
2017-09-21T02:17:07.853Z,996.6
2017-09-21T02:18:08.524Z,996.6
2017-09-21T02:19:09.422Z,996.6
2017-09-21T02:20:10.252Z,996.6
2017-09-21T02:21:11.017Z,996.6
2017-09-21T02:22:12.044Z,996.6
2017-09-21T02:23:12.848Z,996.6
2017-09-21T02:24:13.641Z,996.6
2017-09-21T02:25:14.369Z,996.6
2017-09-21T02:26:15.093Z,996.6
2017-09-21T02:27:15.878Z,996.6
2017-09-21T02:28:16.621Z,996.6
2017-09-21T02:29:17.663Z,996.6
2017-09-21T02:30:18.429Z,996.7
2017-09-21T02:31:19.224Z,996.7
2017-09-21T02:32:20.000Z,996.7
2017-09-21T02:33:20.798Z,996.7
2017-09-21T02:34:21.592Z,996.7
2017-09-21T02:35:22.351Z,996.7
2017-09-21T02:36:23.189Z,996.7
2017-09-21T02:37:23.951Z,996.7
2017-09-21T02:38:24.741Z,996.7
2017-09-21T02:39:25.738Z,996.7
2017-09-21T02:40:26.549Z,996.7
2017-09-21T02:41:27.339Z,996.7
2017-09-21T02:42:28.120Z,996.6
2017-09-21T02:43:28.908Z,996.7
2017-09-21T02:44:29.818Z,996.7
2017-09-21T02:45:30.790Z,996.7
2017-09-21T02:46:31.655Z,996.7
2017-09-21T02:47:32.467Z,996.6
2017-09-21T02:48:33.222Z,996.6
2017-09-21T02:49:34.003Z,996.6
2017-09-21T02:50:34.929Z,996.6
2017-09-21T02:51:35.739Z,996.6
2017-09-21T02:52:36.568Z,996.6
2017-09-21T02:53:37.326Z,996.6
2017-09-21T02:54:38.124Z,996.6
2017-09-21T02:55:38.985Z,996.5
2017-09-21T02:56:39.779Z,996.5
2017-09-21T02:57:40.526Z,996.5
2017-09-21T02:58:41.329Z,996.5
2017-09-21T02:59:42.155Z,996.5
2017-09-21T03:00:43.029Z,996.5
2017-09-21T03:01:43.803Z,996.5
2017-09-21T03:02:44.567Z,996.5
2017-09-21T03:03:45.340Z,996.5
2017-09-21T03:04:46.189Z,996.5
2017-09-21T03:05:47.032Z,996.5
2017-09-21T03:06:47.843Z,996.5
2017-09-21T03:07:48.876Z,996.5
2017-09-21T03:08:49.608Z,996.5
2017-09-21T03:09:50.391Z,996.5
2017-09-21T03:10:51.238Z,996.5
2017-09-21T03:11:51.969Z,996.5
2017-09-21T03:12:52.694Z,996.5
2017-09-21T03:13:53.473Z,996.5
2017-09-21T03:14:54.367Z,996.5
2017-09-21T03:15:55.384Z,996.5
2017-09-21T03:16:56.298Z,996.4
2017-09-21T03:17:57.080Z,996.4
2017-09-21T03:18:57.872Z,996.5
2017-09-21T03:19:58.678Z,996.5
2017-09-21T03:20:59.525Z,996.4
2017-09-21T03:22:00.269Z,996.5
2017-09-21T03:23:01.133Z,996.5
2017-09-21T03:24:02.156Z,996.5
2017-09-21T03:25:02.909Z,996.5
2017-09-21T03:26:03.665Z,996.5
2017-09-21T03:27:04.494Z,996.5
2017-09-21T03:28:05.293Z,996.5
2017-09-21T03:29:06.745Z,996.5
2017-09-21T03:30:07.596Z,996.5
2017-09-21T03:31:08.350Z,996.5
2017-09-21T03:32:09.107Z,996.5
2017-09-21T03:33:09.880Z,996.5
2017-09-21T03:34:10.619Z,996.5
2017-09-21T03:35:11.415Z,996.5
2017-09-21T03:36:12.217Z,996.5
2017-09-21T03:37:12.942Z,996.4
2017-09-21T03:38:13.746Z,996.4
2017-09-21T03:39:14.738Z,996.4
2017-09-21T03:40:15.493Z,996.4
2017-09-21T03:41:16.480Z,996.3
2017-09-21T03:42:17.294Z,996.3
2017-09-21T03:43:18.034Z,996.3
2017-09-21T03:44:19.033Z,996.3
2017-09-21T03:45:20.160Z,996.3
2017-09-21T03:46:21.376Z,996.3
2017-09-21T03:47:22.115Z,996.3
2017-09-21T03:48:22.908Z,996.3
2017-09-21T03:49:23.994Z,996.3
2017-09-21T03:50:24.768Z,996.3
2017-09-21T03:51:25.586Z,996.3
2017-09-21T03:52:26.353Z,996.3
2017-09-21T03:53:27.221Z,996.3
2017-09-21T03:54:28.136Z,996.2
2017-09-21T03:55:29.157Z,996.3
2017-09-21T03:56:29.898Z,996.3
2017-09-21T03:57:30.802Z,996.2
2017-09-21T03:58:31.529Z,996.2
2017-09-21T03:59:32.266Z,996.2
2017-09-21T04:00:33.022Z,996.2
2017-09-21T04:01:33.854Z,996.2
2017-09-21T04:02:34.583Z,996.2
2017-09-21T04:03:35.488Z,996.2
2017-09-21T04:04:36.269Z,996.2
2017-09-21T04:05:37.132Z,996.2
2017-09-21T04:06:38.125Z,996.3
2017-09-21T04:07:39.117Z,996.3
2017-09-21T04:08:39.891Z,996.3
2017-09-21T04:09:40.663Z,996.3
2017-09-21T04:10:41.432Z,996.4
2017-09-21T04:11:42.295Z,996.4
2017-09-21T04:12:43.112Z,996.4
2017-09-21T04:13:43.935Z,996.4
2017-09-21T04:14:45.020Z,996.4
2017-09-21T04:15:45.755Z,996.4
2017-09-21T04:16:46.708Z,996.4
2017-09-21T04:17:47.513Z,996.4
2017-09-21T04:18:48.449Z,996.4
2017-09-21T04:19:49.186Z,996.4
2017-09-21T04:20:49.926Z,996.4
2017-09-21T04:21:50.669Z,996.4
2017-09-21T04:22:51.531Z,996.4
2017-09-21T04:23:52.250Z,996.4
2017-09-21T04:24:53.039Z,996.4
2017-09-21T04:25:53.818Z,996.4
2017-09-21T04:26:54.748Z,996.4
2017-09-21T04:27:55.478Z,996.4
2017-09-21T04:28:56.190Z,996.4
2017-09-21T04:29:56.922Z,996.4
2017-09-21T04:30:57.753Z,996.4
2017-09-21T04:31:58.526Z,996.4
2017-09-21T04:32:59.424Z,996.4
2017-09-21T04:34:00.217Z,996.4
2017-09-21T04:35:00.955Z,996.3
2017-09-21T04:36:01.913Z,996.3
2017-09-21T04:37:02.666Z,996.3
2017-09-21T04:38:03.422Z,996.3
2017-09-21T04:39:04.224Z,996.3
2017-09-21T04:40:04.982Z,996.4
2017-09-21T04:41:06.116Z,996.4
2017-09-21T04:42:06.977Z,996.4
2017-09-21T04:43:07.766Z,996.4
2017-09-21T04:44:08.549Z,996.4
2017-09-21T04:45:09.684Z,996.4
2017-09-21T04:46:10.595Z,996.4
2017-09-21T04:47:11.452Z,996.4
2017-09-21T04:48:12.204Z,996.5
2017-09-21T04:49:12.935Z,996.5
2017-09-21T04:50:13.753Z,996.5
2017-09-21T04:51:14.863Z,996.5
2017-09-21T04:52:15.564Z,996.5
2017-09-21T04:53:16.438Z,996.5
2017-09-21T04:54:17.276Z,996.5
2017-09-21T04:55:18.057Z,996.5
2017-09-21T04:56:18.832Z,996.5
2017-09-21T04:57:20.003Z,996.5
2017-09-21T04:58:20.730Z,996.4
2017-09-21T04:59:21.631Z,996.4
2017-09-21T05:00:22.596Z,996.5
2017-09-21T05:01:23.357Z,996.5
2017-09-21T05:02:24.167Z,996.5
2017-09-21T05:03:25.260Z,996.5
2017-09-21T05:04:26.228Z,996.5
2017-09-21T05:05:27.027Z,996.5
2017-09-21T05:06:27.844Z,996.5
2017-09-21T05:07:28.669Z,996.5
2017-09-21T05:08:29.536Z,996.5
2017-09-21T05:09:30.389Z,996.5
2017-09-21T05:10:31.111Z,996.5
2017-09-21T05:11:31.891Z,996.5
2017-09-21T05:12:32.885Z,996.5
2017-09-21T05:13:34.299Z,996.5
2017-09-21T05:14:35.683Z,996.5
2017-09-21T05:15:36.480Z,996.5
2017-09-21T05:16:37.893Z,996.5
2017-09-21T05:17:38.754Z,996.5
2017-09-21T05:18:39.523Z,996.5
2017-09-21T05:19:40.309Z,996.5
2017-09-21T05:20:41.178Z,996.5
2017-09-21T05:21:42.218Z,996.5
2017-09-21T05:22:43.381Z,996.5
2017-09-21T05:23:44.276Z,996.5
2017-09-21T05:24:45.261Z,996.5
2017-09-21T05:25:46.868Z,996.5
2017-09-21T05:26:47.731Z,996.5
2017-09-21T05:27:49.219Z,996.5
2017-09-21T05:28:49.952Z,996.5
2017-09-21T05:29:50.715Z,996.5
2017-09-21T05:30:51.524Z,996.5
2017-09-21T05:31:52.515Z,996.5
2017-09-21T05:32:53.610Z,996.6
2017-09-21T05:33:55.716Z,996.5
2017-09-21T05:34:56.780Z,996.5
2017-09-21T05:35:57.768Z,996.5
2017-09-21T05:36:58.998Z,996.5
2017-09-21T05:38:00.023Z,996.6
2017-09-21T05:39:00.873Z,996.6
2017-09-21T05:40:01.719Z,996.5
2017-09-21T05:41:02.585Z,996.5
2017-09-21T05:42:03.680Z,996.5
2017-09-21T05:43:05.094Z,996.5
2017-09-21T05:44:06.150Z,996.5
2017-09-21T05:45:07.059Z,996.6
2017-09-21T05:46:07.853Z,996.6
2017-09-21T05:47:08.631Z,996.6
2017-09-21T05:48:09.619Z,996.6
2017-09-21T05:49:10.423Z,996.6
2017-09-21T05:50:11.251Z,996.5
2017-09-21T05:51:12.036Z,996.6
2017-09-21T05:52:13.571Z,996.6
2017-09-21T05:53:14.280Z,996.5
2017-09-21T05:54:15.155Z,996.6
2017-09-21T05:56:17.648Z,996.5
2017-09-21T05:57:18.731Z,996.5
2017-09-21T05:58:19.726Z,996.6
2017-09-21T05:59:20.668Z,996.6
2017-09-21T06:00:21.899Z,996.6
2017-09-21T06:01:22.858Z,996.6
2017-09-21T06:02:24.376Z,996.6
2017-09-21T06:03:25.124Z,996.6
2017-09-21T06:04:26.047Z,996.6
2017-09-21T06:06:29.091Z,996.6
2017-09-21T06:07:30.515Z,996.6
2017-09-21T06:08:31.257Z,996.6
2017-09-21T06:09:31.988Z,996.6
2017-09-21T06:10:33.018Z,996.6
2017-09-21T06:11:33.978Z,996.5
2017-09-21T06:12:35.111Z,996.5
2017-09-21T06:13:36.124Z,996.5
2017-09-21T06:14:37.016Z,996.5
2017-09-21T06:15:38.045Z,996.5
2017-09-21T06:16:38.960Z,996.5
2017-09-21T06:17:39.901Z,996.5
2017-09-21T06:18:40.855Z,996.5
2017-09-21T06:19:41.780Z,996.5
2017-09-21T06:20:42.584Z,996.4
2017-09-21T06:21:43.613Z,996.5
2017-09-21T06:22:44.475Z,996.5
2017-09-21T06:23:45.253Z,996.5
2017-09-21T06:24:46.047Z,996.5
2017-09-21T06:25:47.139Z,996.5
2017-09-21T06:26:48.012Z,996.6
2017-09-21T06:27:48.850Z,996.6
2017-09-21T06:28:49.613Z,996.6
2017-09-21T06:29:50.455Z,996.6
2017-09-21T06:30:51.374Z,996.6
2017-09-21T06:31:52.272Z,996.6
2017-09-21T06:32:53.201Z,996.6
2017-09-21T06:33:53.964Z,996.6
2017-09-21T06:34:54.767Z,996.6
2017-09-21T06:35:55.656Z,996.6
2017-09-21T06:36:56.742Z,996.6
2017-09-21T06:37:57.536Z,996.6
2017-09-21T06:38:58.410Z,996.6
2017-09-21T06:39:59.335Z,996.6
2017-09-21T06:41:00.496Z,996.6
2017-09-21T06:42:01.530Z,996.7
2017-09-21T06:43:02.474Z,996.6
2017-09-21T06:44:03.273Z,996.7
2017-09-21T06:45:04.585Z,996.6
2017-09-21T06:46:05.545Z,996.7
2017-09-21T06:47:06.357Z,996.7
2017-09-21T06:48:07.224Z,996.7
2017-09-21T06:49:08.084Z,996.7
2017-09-21T06:50:08.820Z,996.7
2017-09-21T06:51:09.599Z,996.7
2017-09-21T06:52:10.370Z,996.7
2017-09-21T06:53:11.201Z,996.7
2017-09-21T06:54:12.025Z,996.8
2017-09-21T06:55:12.983Z,996.8
2017-09-21T06:56:13.777Z,996.8
2017-09-21T06:57:14.592Z,996.8
2017-09-21T06:58:15.426Z,996.8
2017-09-21T06:59:16.207Z,996.9
2017-09-21T07:00:17.026Z,996.9
2017-09-21T07:01:17.806Z,996.9
2017-09-21T07:02:18.902Z,996.9
2017-09-21T07:03:19.747Z,996.9
2017-09-21T07:04:20.486Z,996.9
2017-09-21T07:05:21.242Z,996.9
2017-09-21T07:06:22.006Z,996.9
2017-09-21T07:07:22.796Z,996.9
2017-09-21T07:08:23.587Z,996.9
2017-09-21T07:09:24.348Z,996.9
2017-09-21T07:10:25.153Z,997.0
2017-09-21T07:11:26.010Z,996.9
2017-09-21T07:12:26.782Z,996.9
2017-09-21T07:13:27.498Z,996.9
2017-09-21T07:14:28.268Z,996.9
2017-09-21T07:15:29.286Z,996.9
2017-09-21T07:16:30.221Z,997.0
2017-09-21T07:17:31.320Z,996.9
2017-09-21T07:18:32.100Z,996.9
2017-09-21T07:19:32.901Z,996.9
2017-09-21T07:20:33.702Z,997.0
2017-09-21T07:21:34.476Z,997.0
2017-09-21T07:22:35.201Z,996.9
2017-09-21T07:23:35.989Z,996.9
2017-09-21T07:24:36.763Z,997.0
2017-09-21T07:25:37.544Z,997.0
2017-09-21T07:26:38.335Z,997.0
2017-09-21T07:27:39.018Z,997.0
2017-09-21T07:28:39.836Z,997.0
2017-09-21T07:29:40.560Z,997.0
2017-09-21T07:30:41.363Z,997.0
2017-09-21T07:31:42.113Z,997.0
2017-09-21T07:32:42.809Z,997.1
2017-09-21T07:33:44.172Z,997.0
2017-09-21T07:34:44.998Z,997.1
2017-09-21T07:35:46.089Z,997.1
2017-09-21T07:36:46.872Z,997.1
2017-09-21T07:37:47.693Z,997.1
2017-09-21T07:38:48.575Z,997.1
2017-09-21T07:39:49.423Z,997.1
2017-09-21T07:40:50.108Z,997.1
2017-09-21T07:41:51.148Z,997.1
2017-09-21T07:42:52.526Z,997.1
2017-09-21T07:43:53.299Z,997.1
2017-09-21T07:44:54.037Z,997.1
2017-09-21T07:45:55.387Z,997.1
2017-09-21T07:46:56.143Z,997.1
2017-09-21T07:47:56.968Z,997.1
2017-09-21T07:48:58.010Z,997.1
2017-09-21T07:49:58.806Z,997.1
2017-09-21T07:50:59.513Z,997.1
2017-09-21T07:52:00.320Z,997.1
2017-09-21T07:53:01.804Z,997.2
2017-09-21T07:54:02.505Z,997.2
2017-09-21T07:55:03.417Z,997.2
2017-09-21T07:56:04.191Z,997.1
2017-09-21T07:57:05.040Z,997.1
2017-09-21T07:58:05.929Z,997.1
2017-09-21T07:59:06.829Z,997.1
2017-09-21T08:00:08.006Z,997.1
2017-09-21T08:01:09.365Z,997.1
2017-09-21T08:03:25.702Z,997.1
2017-09-21T08:04:26.588Z,997.1
2017-09-21T08:05:27.410Z,997.1
2017-09-21T08:06:28.510Z,997.1
2017-09-21T08:07:29.274Z,997.1
2017-09-21T08:08:30.063Z,997.1
2017-09-21T08:09:30.882Z,997.1
2017-09-21T08:10:31.653Z,997.1
2017-09-21T08:11:32.603Z,997.2
2017-09-21T08:12:33.344Z,997.2
2017-09-21T08:13:34.198Z,997.2
2017-09-21T08:14:35.435Z,997.2
2017-09-21T08:15:36.248Z,997.3
2017-09-21T08:16:36.984Z,997.2
2017-09-21T08:17:37.914Z,997.3
2017-09-21T08:18:38.765Z,997.2
2017-09-21T08:19:39.572Z,997.2
2017-09-21T08:20:40.667Z,997.2
2017-09-21T08:21:41.476Z,997.2
2017-09-21T08:22:42.271Z,997.2
2017-09-21T08:23:43.067Z,997.2
2017-09-21T08:24:43.921Z,997.2
2017-09-21T08:25:45.009Z,997.2
2017-09-21T08:26:45.740Z,997.2
2017-09-21T08:27:46.527Z,997.2
2017-09-21T08:28:47.353Z,997.2
2017-09-21T08:29:48.160Z,997.2
2017-09-21T08:30:48.915Z,997.2
2017-09-21T08:31:49.705Z,997.2
2017-09-21T08:32:50.441Z,997.2
2017-09-21T08:33:51.500Z,997.2
2017-09-21T08:34:52.736Z,997.1
2017-09-21T08:35:53.546Z,997.2
2017-09-21T08:36:54.305Z,997.2
2017-09-21T08:37:55.108Z,997.2
2017-09-21T08:38:56.432Z,997.1
2017-09-21T08:39:57.854Z,997.1
2017-09-21T08:40:58.657Z,997.1
2017-09-21T08:41:59.499Z,997.2
2017-09-21T08:43:00.452Z,997.1
2017-09-21T08:44:01.304Z,997.2
2017-09-21T08:45:02.061Z,997.2
2017-09-21T08:46:02.875Z,997.2
2017-09-21T08:47:03.590Z,997.2
2017-09-21T08:48:04.445Z,997.1
2017-09-21T08:49:05.343Z,997.2
2017-09-21T08:50:06.299Z,997.2
2017-09-21T08:51:07.230Z,997.2
2017-09-21T08:52:08.348Z,997.2
2017-09-21T08:53:09.185Z,997.2
2017-09-21T08:54:09.926Z,997.2
2017-09-21T08:55:10.652Z,997.1
2017-09-21T08:56:11.430Z,997.2
2017-09-21T08:57:12.186Z,997.2
2017-09-21T08:58:13.145Z,997.2
2017-09-21T08:59:13.928Z,997.2
2017-09-21T09:00:14.797Z,997.2
2017-09-21T09:01:16.767Z,997.2
2017-09-21T09:02:17.780Z,997.2
2017-09-21T09:03:18.566Z,997.2
2017-09-21T09:04:19.502Z,997.2
2017-09-21T09:05:20.270Z,997.2
2017-09-21T09:06:21.041Z,997.2
2017-09-21T09:07:21.797Z,997.2
2017-09-21T09:08:22.577Z,997.3
2017-09-21T09:09:23.381Z,997.3
2017-09-21T09:10:24.185Z,997.2
2017-09-21T09:11:25.067Z,997.2
2017-09-21T09:12:25.860Z,997.2
2017-09-21T09:13:26.601Z,997.2
2017-09-21T09:14:27.388Z,997.1
2017-09-21T09:15:28.301Z,997.1
2017-09-21T09:16:29.119Z,997.1
2017-09-21T09:17:29.928Z,997.1
2017-09-21T09:18:30.706Z,997.1
2017-09-21T09:19:31.781Z,997.2
2017-09-21T09:20:32.579Z,997.1
2017-09-21T09:21:33.497Z,997.1
2017-09-21T09:22:34.313Z,997.1
2017-09-21T09:23:35.029Z,997.1
2017-09-21T09:24:35.807Z,997.1
2017-09-21T09:25:36.552Z,997.1
2017-09-21T09:26:37.358Z,997.1
2017-09-21T09:27:38.505Z,997.1
2017-09-21T09:28:39.248Z,997.1
2017-09-21T09:29:40.002Z,997.1
2017-09-21T09:30:41.089Z,997.1
2017-09-21T09:31:41.795Z,997.0
2017-09-21T09:32:42.507Z,997.0
2017-09-21T09:33:43.304Z,997.0
2017-09-21T09:34:44.171Z,997.0
2017-09-21T09:35:44.899Z,997.0
2017-09-21T09:36:45.668Z,997.0
2017-09-21T09:37:46.411Z,996.9
2017-09-21T09:38:47.190Z,996.9
2017-09-21T09:39:47.976Z,996.9
2017-09-21T09:40:48.773Z,996.9
2017-09-21T09:41:49.501Z,996.9
2017-09-21T09:42:50.312Z,996.9
2017-09-21T09:43:51.081Z,996.9
2017-09-21T09:44:51.888Z,996.9
2017-09-21T09:45:53.044Z,996.8
2017-09-21T09:46:53.895Z,996.8
2017-09-21T09:47:54.686Z,996.8
2017-09-21T09:48:55.534Z,996.8
2017-09-21T09:49:56.444Z,996.8
2017-09-21T09:50:57.270Z,996.8
2017-09-21T09:51:58.019Z,996.8
2017-09-21T09:52:58.812Z,996.8
2017-09-21T09:53:59.640Z,996.7
2017-09-21T09:55:00.547Z,996.8
2017-09-21T09:56:01.415Z,996.8
2017-09-21T09:57:02.204Z,996.8
2017-09-21T09:58:03.399Z,996.8
2017-09-21T09:59:04.207Z,996.8
2017-09-21T10:00:05.044Z,996.8
2017-09-21T10:01:05.990Z,996.8
2017-09-21T10:02:07.093Z,996.8
2017-09-21T10:03:07.819Z,996.8
2017-09-21T10:04:08.642Z,996.8
2017-09-21T10:05:09.449Z,996.8
2017-09-21T10:06:10.255Z,996.8
2017-09-21T10:07:11.077Z,996.8
2017-09-21T10:08:11.847Z,996.8
2017-09-21T10:09:12.632Z,996.8
2017-09-21T10:10:13.379Z,996.8
2017-09-21T10:11:14.211Z,996.8
2017-09-21T10:12:14.986Z,996.8
2017-09-21T10:13:15.764Z,996.7
2017-09-21T10:14:16.785Z,996.7
2017-09-21T10:15:18.093Z,996.7
2017-09-21T10:16:18.865Z,996.7
2017-09-21T10:17:19.674Z,996.7
2017-09-21T10:18:20.432Z,996.7
2017-09-21T10:19:21.200Z,996.7
2017-09-21T10:20:22.279Z,996.7
2017-09-21T10:21:23.071Z,996.7
2017-09-21T10:22:23.785Z,996.7
2017-09-21T10:23:24.533Z,996.7
2017-09-21T10:24:25.511Z,996.7
2017-09-21T10:25:26.688Z,996.7
2017-09-21T10:26:27.788Z,996.7
2017-09-21T10:27:28.563Z,996.6
2017-09-21T10:28:29.282Z,996.7
2017-09-21T10:29:30.100Z,996.7
2017-09-21T10:30:31.425Z,996.7
2017-09-21T10:31:32.108Z,996.7
2017-09-21T10:32:33.077Z,996.7
2017-09-21T10:33:33.810Z,996.7
2017-09-21T10:34:34.602Z,996.7
2017-09-21T10:35:35.360Z,996.7
2017-09-21T10:36:36.191Z,996.8
2017-09-21T10:37:37.110Z,996.8
2017-09-21T10:38:37.949Z,996.7
2017-09-21T10:39:38.677Z,996.8
2017-09-21T10:40:39.503Z,996.7
2017-09-21T10:41:40.507Z,996.7
2017-09-21T10:42:41.509Z,996.7
2017-09-21T10:43:42.267Z,996.7
2017-09-21T10:44:43.196Z,996.7
2017-09-21T10:45:44.124Z,996.7
2017-09-21T10:46:45.786Z,996.7
2017-09-21T10:47:46.554Z,996.6
2017-09-21T10:48:47.284Z,996.6
2017-09-21T10:49:48.734Z,996.6
2017-09-21T10:50:49.504Z,996.6
2017-09-21T10:51:51.219Z,996.6
2017-09-21T10:52:51.955Z,996.6
2017-09-21T10:53:52.806Z,996.6
2017-09-21T10:54:53.635Z,996.6
2017-09-21T10:55:54.445Z,996.5
2017-09-21T10:56:55.239Z,996.6
2017-09-21T10:57:56.017Z,996.5
2017-09-21T10:58:56.818Z,996.5
2017-09-21T10:59:57.627Z,996.5
2017-09-21T11:00:58.436Z,996.5
2017-09-21T11:03:14.733Z,996.5
2017-09-21T11:04:15.507Z,996.5
2017-09-21T11:05:16.411Z,996.4
2017-09-21T11:06:17.175Z,996.5
2017-09-21T11:07:17.949Z,996.5
2017-09-21T11:08:18.749Z,996.5
2017-09-21T11:09:19.520Z,996.5
2017-09-21T11:10:20.416Z,996.5
2017-09-21T11:11:21.208Z,996.5
2017-09-21T11:12:22.063Z,996.5
2017-09-21T11:13:23.115Z,996.5
2017-09-21T11:14:24.508Z,996.5
2017-09-21T11:15:25.374Z,996.5
2017-09-21T11:16:26.152Z,996.5
2017-09-21T11:17:26.963Z,996.5
2017-09-21T11:18:27.983Z,996.4
2017-09-21T11:19:28.800Z,996.4
2017-09-21T11:20:29.529Z,996.4
2017-09-21T11:21:30.384Z,996.4
2017-09-21T11:22:31.410Z,996.4
2017-09-21T11:23:32.176Z,996.4
2017-09-21T11:24:33.017Z,996.4
2017-09-21T11:25:33.761Z,996.4
2017-09-21T11:26:34.568Z,996.4
2017-09-21T11:27:35.305Z,996.4
2017-09-21T11:28:36.237Z,996.4
2017-09-21T11:29:36.945Z,996.4
2017-09-21T11:30:37.822Z,996.4
2017-09-21T11:31:38.673Z,996.4
2017-09-21T11:32:39.637Z,996.4
2017-09-21T11:33:40.376Z,996.4
2017-09-21T11:34:41.160Z,996.4
2017-09-21T11:35:41.893Z,996.4
2017-09-21T11:36:42.939Z,996.4
2017-09-21T11:37:43.781Z,996.4
2017-09-21T11:38:44.602Z,996.4
2017-09-21T11:39:45.452Z,996.4
2017-09-21T11:40:46.256Z,996.4
2017-09-21T11:41:47.011Z,996.4
2017-09-21T11:42:47.776Z,996.3
2017-09-21T11:43:48.622Z,996.4
2017-09-21T11:44:49.349Z,996.3
2017-09-21T11:45:50.186Z,996.3
2017-09-21T11:46:50.972Z,996.3
2017-09-21T11:47:51.709Z,996.3
2017-09-21T11:48:52.457Z,996.3
2017-09-21T11:49:53.481Z,996.3
2017-09-21T11:50:54.315Z,996.3
2017-09-21T11:51:55.054Z,996.3
2017-09-21T11:52:55.863Z,996.3
2017-09-21T11:53:56.659Z,996.2
2017-09-21T11:54:57.625Z,996.2
2017-09-21T11:55:58.430Z,996.2
2017-09-21T11:56:59.228Z,996.2
2017-09-21T11:57:59.976Z,996.2
2017-09-21T11:59:00.707Z,996.2
2017-09-21T12:00:01.549Z,996.2
2017-09-21T12:01:02.451Z,996.1
2017-09-21T12:02:03.292Z,996.1
2017-09-21T12:03:04.066Z,996.1
2017-09-21T12:04:04.840Z,996.0
2017-09-21T12:05:05.644Z,996.0
2017-09-21T12:06:06.506Z,996.0
2017-09-21T12:07:07.240Z,996.0
2017-09-21T12:08:08.034Z,996.0
2017-09-21T12:09:08.871Z,996.0
2017-09-21T12:10:09.692Z,996.0
2017-09-21T12:11:10.746Z,996.0
2017-09-21T12:12:11.546Z,996.0
2017-09-21T12:13:12.263Z,996.0
2017-09-21T12:14:13.025Z,996.0
2017-09-21T12:15:13.978Z,996.0
2017-09-21T12:16:15.100Z,996.0
2017-09-21T12:17:15.880Z,996.0
2017-09-21T12:18:16.628Z,996.0
2017-09-21T12:19:17.420Z,996.0
2017-09-21T12:20:18.250Z,996.0
2017-09-21T12:21:19.021Z,996.0
2017-09-21T12:22:19.816Z,996.0
2017-09-21T12:23:20.538Z,996.0
2017-09-21T12:24:21.383Z,996.0
2017-09-21T12:25:22.169Z,996.0
2017-09-21T12:26:22.971Z,996.0
2017-09-21T12:27:23.749Z,996.0
2017-09-21T12:28:24.702Z,996.0
2017-09-21T12:29:25.480Z,996.0
2017-09-21T12:30:26.432Z,996.0
2017-09-21T12:31:27.558Z,996.0
2017-09-21T12:32:28.292Z,995.9
2017-09-21T12:33:29.185Z,996.0
2017-09-21T12:34:29.902Z,996.0
2017-09-21T12:35:30.663Z,995.9
2017-09-21T12:36:31.834Z,995.9
2017-09-21T12:37:32.618Z,995.9
2017-09-21T12:38:33.422Z,995.9
2017-09-21T12:39:34.193Z,995.9
2017-09-21T12:40:34.997Z,995.9
2017-09-21T12:41:35.801Z,995.8
2017-09-21T12:42:36.705Z,995.9
2017-09-21T12:43:37.565Z,995.8
2017-09-21T12:44:38.347Z,995.8
2017-09-21T12:45:39.245Z,995.8
2017-09-21T12:46:40.035Z,995.8
2017-09-21T12:47:41.414Z,995.9
2017-09-21T12:48:42.285Z,995.8
2017-09-21T12:49:43.084Z,995.8
2017-09-21T12:50:43.804Z,995.8
2017-09-21T12:51:44.811Z,995.8
2017-09-21T12:52:45.792Z,995.8
2017-09-21T12:53:46.596Z,995.8
2017-09-21T12:54:47.407Z,995.8
2017-09-21T12:55:48.628Z,995.8
2017-09-21T12:56:49.336Z,995.8
2017-09-21T12:57:50.129Z,995.8
2017-09-21T12:58:50.879Z,995.8
2017-09-21T12:59:51.855Z,995.8
2017-09-21T13:00:52.627Z,995.7
2017-09-21T13:01:53.630Z,995.7
2017-09-21T13:02:54.399Z,995.8
2017-09-21T13:03:55.179Z,995.7
2017-09-21T13:04:56.200Z,995.7
2017-09-21T13:05:56.938Z,995.7
2017-09-21T13:06:57.941Z,995.7
2017-09-21T13:07:58.851Z,995.7